SVA925 OERK-EDDF
Flight info
| Callsign | SVA925 |
|---|---|
| Flight time | N/A |
| Altitude | 40000 |
| Route | IVONU Z710 GAS G662 NIMAR L550 NOVPA N697 MENLI L677 CVO L617 NOZ L551 ANTAR DCT RIGRO DCT DISOR DCT LONTA UL608 DOLEV DCT BEDOX DCT SIMBA DCT AKINI T161 DEBHI DEBHI1D |
| Aircraft | B748/H-SDE3FGHIM1M2RWXY/LB1 |
Departure
| Time | 2026-05-08 08:05 |
|---|---|
| Airport | King Khalid International Airport (OERK) |
Arrival
| Time | N/A |
|---|---|
| Airport | Frankfurt Main Airport (EDDF) |
| Time | Latitude | Longitude | Altitude | Speed | Heading |
|---|---|---|---|---|---|
| 2026-05-08 06:44 | 24.97760 | 46.69384 | 2037 ft | 0 kts | 239° |
| 2026-05-08 07:44 | 24.97767 | 46.69398 | 2037 ft | 4 kts | 240° |
| 2026-05-08 07:44 | 24.97780 | 46.69424 | 2041 ft | 4 kts | 240° |
| 2026-05-08 07:45 | 24.97794 | 46.69449 | 2045 ft | 3 kts | 240° |
| 2026-05-08 07:45 | 24.97807 | 46.69470 | 2043 ft | 4 kts | 205° |
| 2026-05-08 07:45 | 24.97829 | 46.69470 | 2039 ft | 4 kts | 151° |
| 2026-05-08 07:45 | 24.97847 | 46.69458 | 2041 ft | 1 kts | 150° |
| 2026-05-08 07:46 | 24.97850 | 46.69457 | 2042 ft | 0 kts | 150° |
| 2026-05-08 07:52 | 24.97848 | 46.69458 | 2041 ft | 1 kts | 150° |
| 2026-05-08 07:52 | 24.97836 | 46.69465 | 2039 ft | 3 kts | 150° |
| 2026-05-08 07:53 | 24.97804 | 46.69485 | 2042 ft | 7 kts | 150° |
| 2026-05-08 07:53 | 24.97753 | 46.69517 | 2045 ft | 10 kts | 150° |
| 2026-05-08 07:53 | 24.97683 | 46.69562 | 2043 ft | 13 kts | 150° |
| 2026-05-08 07:53 | 24.97593 | 46.69618 | 2045 ft | 16 kts | 150° |
| 2026-05-08 07:54 | 24.97490 | 46.69685 | 2042 ft | 17 kts | 150° |
| 2026-05-08 07:54 | 24.97437 | 46.69735 | 2045 ft | 4 kts | 104° |
| 2026-05-08 07:54 | 24.97438 | 46.69751 | 2044 ft | 2 kts | 83° |
| 2026-05-08 07:54 | 24.97447 | 46.69784 | 2043 ft | 6 kts | 68° |
| 2026-05-08 07:55 | 24.97475 | 46.69836 | 2045 ft | 11 kts | 60° |
| 2026-05-08 07:55 | 24.97516 | 46.69933 | 2040 ft | 15 kts | 86° |
| 2026-05-08 07:55 | 24.97461 | 46.70000 | 2045 ft | 13 kts | 149° |
| 2026-05-08 07:55 | 24.97357 | 46.70067 | 2047 ft | 22 kts | 149° |
| 2026-05-08 07:56 | 24.97206 | 46.70163 | 2047 ft | 26 kts | 150° |
| 2026-05-08 07:56 | 24.97049 | 46.70263 | 2042 ft | 26 kts | 150° |
| 2026-05-08 07:56 | 24.96897 | 46.70358 | 2042 ft | 25 kts | 150° |
| 2026-05-08 07:56 | 24.96758 | 46.70446 | 2045 ft | 22 kts | 150° |
| 2026-05-08 07:57 | 24.96627 | 46.70528 | 2044 ft | 21 kts | 150° |
| 2026-05-08 07:57 | 24.96499 | 46.70610 | 2043 ft | 21 kts | 150° |
| 2026-05-08 07:57 | 24.96372 | 46.70690 | 2047 ft | 21 kts | 150° |
| 2026-05-08 07:57 | 24.96247 | 46.70769 | 2041 ft | 21 kts | 150° |
| 2026-05-08 07:58 | 24.96123 | 46.70847 | 2048 ft | 20 kts | 150° |
| 2026-05-08 07:58 | 24.96003 | 46.70924 | 2047 ft | 20 kts | 150° |
| 2026-05-08 07:58 | 24.95883 | 46.70998 | 2045 ft | 19 kts | 149° |
| 2026-05-08 07:58 | 24.95768 | 46.71072 | 2048 ft | 19 kts | 150° |
| 2026-05-08 07:59 | 24.95653 | 46.71145 | 2045 ft | 19 kts | 150° |
| 2026-05-08 07:59 | 24.95538 | 46.71218 | 2043 ft | 19 kts | 150° |
| 2026-05-08 07:59 | 24.95424 | 46.71289 | 2045 ft | 19 kts | 152° |
| 2026-05-08 07:59 | 24.95318 | 46.71354 | 2048 ft | 18 kts | 150° |
| 2026-05-08 08:00 | 24.95208 | 46.71425 | 2042 ft | 18 kts | 149° |
| 2026-05-08 08:00 | 24.95099 | 46.71495 | 2049 ft | 18 kts | 150° |
| 2026-05-08 08:00 | 24.94990 | 46.71564 | 2042 ft | 18 kts | 150° |
| 2026-05-08 08:00 | 24.94881 | 46.71633 | 2046 ft | 18 kts | 150° |
| 2026-05-08 08:01 | 24.94772 | 46.71703 | 2049 ft | 18 kts | 150° |
| 2026-05-08 08:01 | 24.94665 | 46.71769 | 2046 ft | 18 kts | 150° |
| 2026-05-08 08:01 | 24.94559 | 46.71835 | 2048 ft | 17 kts | 150° |
| 2026-05-08 08:01 | 24.94455 | 46.71902 | 2050 ft | 17 kts | 150° |
| 2026-05-08 08:02 | 24.94349 | 46.71969 | 2047 ft | 17 kts | 152° |
| 2026-05-08 08:02 | 24.94301 | 46.72023 | 2048 ft | 6 kts | 109° |
| 2026-05-08 08:02 | 24.94303 | 46.72057 | 2048 ft | 4 kts | 73° |
| 2026-05-08 08:02 | 24.94315 | 46.72085 | 2048 ft | 5 kts | 62° |
| 2026-05-08 08:03 | 24.94337 | 46.72129 | 2050 ft | 8 kts | 60° |
| 2026-05-08 08:03 | 24.94371 | 46.72191 | 2046 ft | 11 kts | 59° |
| 2026-05-08 08:03 | 24.94416 | 46.72242 | 2051 ft | 7 kts | 22° |
| 2026-05-08 08:03 | 24.94465 | 46.72239 | 2046 ft | 5 kts | 337° |
| 2026-05-08 08:04 | 24.94498 | 46.72217 | 2046 ft | 5 kts | 329° |
| 2026-05-08 08:04 | 24.94537 | 46.72192 | 2045 ft | 15 kts | 330° |
| 2026-05-08 08:04 | 24.94753 | 46.72055 | 2044 ft | 65 kts | 330° |
| 2026-05-08 08:04 | 24.95390 | 46.71653 | 2045 ft | 147 kts | 330° |
| 2026-05-08 08:05 | 24.96486 | 46.70964 | 2062 ft | 212 kts | 331° |
| 2026-05-08 08:05 | 24.97882 | 46.70100 | 2442 ft | 245 kts | 331° |
| 2026-05-08 08:05 | 24.99382 | 46.69362 | 3592 ft | 228 kts | 342° |
| 2026-05-08 08:05 | 25.00902 | 46.68838 | 3978 ft | 232 kts | 344° |
| 2026-05-08 08:06 | 25.02468 | 46.68275 | 4165 ft | 241 kts | 342° |
| 2026-05-08 08:06 | 25.04082 | 46.67635 | 4308 ft | 252 kts | 341° |
| 2026-05-08 08:06 | 25.05755 | 46.66963 | 4441 ft | 266 kts | 342° |
| 2026-05-08 08:06 | 25.07435 | 46.66078 | 4670 ft | 277 kts | 322° |
| 2026-05-08 08:07 | 25.08653 | 46.64392 | 4954 ft | 285 kts | 294° |
| 2026-05-08 08:07 | 25.09037 | 46.62253 | 5281 ft | 288 kts | 266° |
| 2026-05-08 08:07 | 25.08717 | 46.60070 | 5671 ft | 289 kts | 257° |
| 2026-05-08 08:07 | 25.08222 | 46.57960 | 6039 ft | 290 kts | 255° |
| 2026-05-08 08:08 | 25.07725 | 46.55768 | 6424 ft | 290 kts | 260° |
| 2026-05-08 08:08 | 25.07602 | 46.53562 | 6760 ft | 289 kts | 271° |
| 2026-05-08 08:08 | 25.07597 | 46.51343 | 7095 ft | 290 kts | 270° |
| 2026-05-08 08:08 | 25.07557 | 46.49145 | 7421 ft | 291 kts | 269° |
| 2026-05-08 08:09 | 25.07500 | 46.46911 | 7746 ft | 292 kts | 268° |
| 2026-05-08 08:09 | 25.07450 | 46.44671 | 8065 ft | 293 kts | 268° |
| 2026-05-08 08:09 | 25.07407 | 46.42423 | 8374 ft | 294 kts | 268° |
| 2026-05-08 08:09 | 25.07363 | 46.40170 | 8687 ft | 294 kts | 267° |
| 2026-05-08 08:10 | 25.07314 | 46.37910 | 8967 ft | 295 kts | 267° |
| 2026-05-08 08:10 | 25.07270 | 46.35801 | 8984 ft | 295 kts | 266° |
| 2026-05-08 08:10 | 25.07221 | 46.33539 | 8997 ft | 294 kts | 266° |
| 2026-05-08 08:10 | 25.07174 | 46.31329 | 9012 ft | 292 kts | 266° |
| 2026-05-08 08:11 | 25.07125 | 46.29090 | 9321 ft | 292 kts | 266° |
| 2026-05-08 08:11 | 25.07075 | 46.26845 | 9616 ft | 293 kts | 266° |
| 2026-05-08 08:11 | 25.07024 | 46.24595 | 9935 ft | 294 kts | 266° |
| 2026-05-08 08:11 | 25.06974 | 46.22338 | 10177 ft | 296 kts | 266° |
| 2026-05-08 08:12 | 25.06921 | 46.20047 | 10289 ft | 302 kts | 266° |
| 2026-05-08 08:12 | 25.06868 | 46.17700 | 10345 ft | 310 kts | 266° |
| 2026-05-08 08:12 | 25.06813 | 46.15300 | 10409 ft | 316 kts | 266° |
| 2026-05-08 08:12 | 25.06757 | 46.12890 | 10487 ft | 321 kts | 266° |
| 2026-05-08 08:13 | 25.06700 | 46.10417 | 10585 ft | 325 kts | 266° |
| 2026-05-08 08:13 | 25.06642 | 46.07916 | 10681 ft | 328 kts | 265° |
| 2026-05-08 08:13 | 25.06583 | 46.05395 | 10782 ft | 330 kts | 266° |
| 2026-05-08 08:13 | 25.06523 | 46.02861 | 10882 ft | 332 kts | 266° |
| 2026-05-08 08:14 | 25.06461 | 46.00311 | 10995 ft | 333 kts | 265° |
| 2026-05-08 08:14 | 25.06400 | 45.97753 | 11115 ft | 334 kts | 265° |
| 2026-05-08 08:14 | 25.06338 | 45.95191 | 11245 ft | 334 kts | 265° |
| 2026-05-08 08:14 | 25.06274 | 45.92631 | 11398 ft | 334 kts | 265° |
| 2026-05-08 08:15 | 25.06213 | 45.90072 | 11533 ft | 334 kts | 265° |
| 2026-05-08 08:15 | 25.06151 | 45.87548 | 11669 ft | 334 kts | 265° |
| 2026-05-08 08:15 | 25.06087 | 45.84990 | 11796 ft | 334 kts | 265° |
| 2026-05-08 08:15 | 25.06022 | 45.82431 | 11927 ft | 334 kts | 265° |
| 2026-05-08 08:16 | 25.05957 | 45.79871 | 12053 ft | 334 kts | 265° |
| 2026-05-08 08:16 | 25.05893 | 45.77312 | 12179 ft | 334 kts | 265° |
| 2026-05-08 08:16 | 25.05827 | 45.74750 | 12292 ft | 334 kts | 265° |
| 2026-05-08 08:16 | 25.05761 | 45.72189 | 12415 ft | 334 kts | 265° |
| 2026-05-08 08:17 | 25.05695 | 45.69627 | 12543 ft | 334 kts | 266° |
| 2026-05-08 08:17 | 25.05937 | 45.67108 | 12663 ft | 339 kts | 283° |
| 2026-05-08 08:17 | 25.06837 | 45.64696 | 12785 ft | 341 kts | 291° |
| 2026-05-08 08:17 | 25.07877 | 45.62339 | 12888 ft | 342 kts | 292° |
| 2026-05-08 08:18 | 25.08931 | 45.59994 | 12982 ft | 341 kts | 292° |
| 2026-05-08 08:18 | 25.09962 | 45.57636 | 13088 ft | 341 kts | 291° |
| 2026-05-08 08:18 | 25.10984 | 45.55267 | 13167 ft | 342 kts | 291° |
| 2026-05-08 08:18 | 25.12016 | 45.52896 | 13248 ft | 343 kts | 291° |
| 2026-05-08 08:19 | 25.13055 | 45.50523 | 13326 ft | 344 kts | 291° |
| 2026-05-08 08:19 | 25.14095 | 45.48140 | 13395 ft | 345 kts | 291° |
| 2026-05-08 08:19 | 25.15119 | 45.45786 | 13458 ft | 346 kts | 291° |
| 2026-05-08 08:19 | 25.16160 | 45.43393 | 13523 ft | 346 kts | 291° |
| 2026-05-08 08:20 | 25.17204 | 45.40994 | 13591 ft | 347 kts | 291° |
| 2026-05-08 08:20 | 25.18246 | 45.38600 | 13896 ft | 343 kts | 291° |
| 2026-05-08 08:20 | 25.19285 | 45.36210 | 14427 ft | 349 kts | 291° |
| 2026-05-08 08:20 | 25.20347 | 45.33757 | 14747 ft | 360 kts | 291° |
| 2026-05-08 08:21 | 25.21451 | 45.31212 | 14947 ft | 375 kts | 292° |
| 2026-05-08 08:21 | 25.22604 | 45.28556 | 15059 ft | 392 kts | 292° |
| 2026-05-08 08:21 | 25.23805 | 45.25790 | 15250 ft | 405 kts | 292° |
| 2026-05-08 08:21 | 25.25037 | 45.22952 | 15584 ft | 414 kts | 292° |
| 2026-05-08 08:22 | 25.26271 | 45.20103 | 15975 ft | 420 kts | 292° |
| 2026-05-08 08:22 | 25.27537 | 45.17178 | 16380 ft | 424 kts | 292° |
| 2026-05-08 08:22 | 25.28814 | 45.14225 | 16846 ft | 428 kts | 292° |
| 2026-05-08 08:22 | 25.30098 | 45.11250 | 17285 ft | 430 kts | 293° |
| 2026-05-08 08:23 | 25.31394 | 45.08254 | 17720 ft | 433 kts | 293° |
| 2026-05-08 08:23 | 25.32695 | 45.05243 | 18165 ft | 435 kts | 293° |
| 2026-05-08 08:23 | 25.34001 | 45.02215 | 18568 ft | 438 kts | 293° |
| 2026-05-08 08:23 | 25.35314 | 44.99168 | 18931 ft | 440 kts | 293° |
| 2026-05-08 08:24 | 25.36615 | 44.96151 | 19299 ft | 442 kts | 292° |
| 2026-05-08 08:24 | 25.37937 | 44.93077 | 19667 ft | 444 kts | 292° |
| 2026-05-08 08:24 | 25.39265 | 44.89986 | 20023 ft | 446 kts | 292° |
| 2026-05-08 08:24 | 25.40600 | 44.86882 | 20380 ft | 448 kts | 292° |
| 2026-05-08 08:25 | 25.41942 | 44.83760 | 20691 ft | 451 kts | 292° |
| 2026-05-08 08:25 | 25.43290 | 44.80619 | 21013 ft | 453 kts | 292° |
| 2026-05-08 08:25 | 25.44644 | 44.77460 | 21320 ft | 456 kts | 292° |
| 2026-05-08 08:25 | 25.46007 | 44.74281 | 21616 ft | 458 kts | 292° |
| 2026-05-08 08:26 | 25.47376 | 44.71086 | 21906 ft | 461 kts | 292° |
| 2026-05-08 08:26 | 25.48732 | 44.67916 | 22187 ft | 463 kts | 292° |
| 2026-05-08 08:26 | 25.50113 | 44.64688 | 22463 ft | 465 kts | 291° |
| 2026-05-08 08:26 | 25.51500 | 44.61441 | 22751 ft | 468 kts | 291° |
| 2026-05-08 08:27 | 25.52928 | 44.58191 | 23025 ft | 472 kts | 295° |
| 2026-05-08 08:27 | 25.54834 | 44.55193 | 23291 ft | 482 kts | 307° |
| 2026-05-08 08:27 | 25.57240 | 44.52570 | 23570 ft | 489 kts | 314° |
| 2026-05-08 08:27 | 25.59884 | 44.50167 | 23804 ft | 493 kts | 317° |
| 2026-05-08 08:28 | 25.62591 | 44.47819 | 24009 ft | 495 kts | 317° |
| 2026-05-08 08:28 | 25.65167 | 44.45373 | 24200 ft | 494 kts | 312° |
| 2026-05-08 08:28 | 25.67614 | 44.42703 | 24413 ft | 494 kts | 309° |
| 2026-05-08 08:28 | 25.70046 | 44.40001 | 24639 ft | 497 kts | 310° |
| 2026-05-08 08:29 | 25.72601 | 44.37402 | 24829 ft | 500 kts | 313° |
| 2026-05-08 08:29 | 25.75204 | 44.34837 | 25037 ft | 501 kts | 312° |
| 2026-05-08 08:29 | 25.77748 | 44.32204 | 25240 ft | 501 kts | 310° |
| 2026-05-08 08:29 | 25.80265 | 44.29526 | 25459 ft | 502 kts | 310° |
| 2026-05-08 08:30 | 25.82816 | 44.26871 | 25677 ft | 504 kts | 311° |
| 2026-05-08 08:30 | 25.85402 | 44.24234 | 25899 ft | 505 kts | 311° |
| 2026-05-08 08:30 | 25.90513 | 44.18930 | 26357 ft | 507 kts | 310° |
| 2026-05-08 08:31 | 25.93088 | 44.16243 | 26593 ft | 509 kts | 310° |
| 2026-05-08 08:31 | 25.95680 | 44.13561 | 26826 ft | 510 kts | 310° |
| 2026-05-08 08:31 | 25.98279 | 44.10872 | 27053 ft | 511 kts | 310° |
| 2026-05-08 08:31 | 26.00877 | 44.08167 | 27297 ft | 512 kts | 310° |
| 2026-05-08 08:32 | 26.03478 | 44.05452 | 27532 ft | 514 kts | 310° |
| 2026-05-08 08:32 | 26.06090 | 44.02735 | 27855 ft | 515 kts | 310° |
| 2026-05-08 08:32 | 26.08703 | 44.00018 | 28245 ft | 514 kts | 309° |
| 2026-05-08 08:32 | 26.11272 | 43.97340 | 28653 ft | 513 kts | 309° |
| 2026-05-08 08:33 | 26.13869 | 43.94627 | 29096 ft | 512 kts | 309° |
| 2026-05-08 08:33 | 26.16464 | 43.91918 | 29572 ft | 511 kts | 309° |
| 2026-05-08 08:33 | 26.19056 | 43.89214 | 30081 ft | 510 kts | 309° |
| 2026-05-08 08:33 | 26.21641 | 43.86512 | 30521 ft | 509 kts | 308° |
| 2026-05-08 08:34 | 26.24222 | 43.83812 | 30986 ft | 509 kts | 308° |
| 2026-05-08 08:34 | 26.26798 | 43.81116 | 31472 ft | 508 kts | 307° |
| 2026-05-08 08:34 | 26.29325 | 43.78387 | 31949 ft | 500 kts | 301° |
| 2026-05-08 08:34 | 26.31359 | 43.75343 | 32454 ft | 482 kts | 291° |
| 2026-05-08 08:35 | 26.33044 | 43.72132 | 32938 ft | 478 kts | 289° |
| 2026-05-08 08:35 | 26.34696 | 43.68966 | 33467 ft | 479 kts | 290° |
| 2026-05-08 08:35 | 26.36459 | 43.65805 | 33984 ft | 480 kts | 291° |
| 2026-05-08 08:35 | 26.38240 | 43.62661 | 34477 ft | 478 kts | 290° |
| 2026-05-08 08:36 | 26.39963 | 43.59509 | 34910 ft | 475 kts | 289° |
| 2026-05-08 08:36 | 26.41658 | 43.56351 | 35332 ft | 474 kts | 290° |
| 2026-05-08 08:36 | 26.43373 | 43.53207 | 35709 ft | 475 kts | 290° |
| 2026-05-08 08:36 | 26.45077 | 43.50125 | 36076 ft | 474 kts | 290° |
| 2026-05-08 08:37 | 26.46824 | 43.46940 | 36466 ft | 473 kts | 290° |
| 2026-05-08 08:37 | 26.48506 | 43.43845 | 36808 ft | 472 kts | 290° |
| 2026-05-08 08:37 | 26.50208 | 43.40714 | 37182 ft | 472 kts | 290° |
| 2026-05-08 08:37 | 26.51918 | 43.37585 | 37517 ft | 471 kts | 290° |
| 2026-05-08 08:38 | 26.53623 | 43.34465 | 37842 ft | 471 kts | 290° |
| 2026-05-08 08:38 | 26.55322 | 43.31343 | 38158 ft | 470 kts | 289° |
| 2026-05-08 08:38 | 26.57016 | 43.28225 | 38458 ft | 469 kts | 289° |
| 2026-05-08 08:38 | 26.58712 | 43.25107 | 38732 ft | 469 kts | 289° |
| 2026-05-08 08:39 | 26.60403 | 43.21996 | 38975 ft | 469 kts | 290° |
| 2026-05-08 08:39 | 26.62072 | 43.18924 | 39185 ft | 468 kts | 290° |
| 2026-05-08 08:39 | 26.63758 | 43.15815 | 39383 ft | 468 kts | 290° |
| 2026-05-08 08:39 | 26.65445 | 43.12705 | 39570 ft | 468 kts | 290° |
| 2026-05-08 08:40 | 26.67131 | 43.09597 | 39755 ft | 467 kts | 290° |
| 2026-05-08 08:40 | 26.68815 | 43.06491 | 39934 ft | 467 kts | 290° |
| 2026-05-08 08:40 | 26.72157 | 43.00321 | 40001 ft | 461 kts | 290° |
| 2026-05-08 08:41 | 26.75450 | 42.94228 | 40006 ft | 455 kts | 289° |
| 2026-05-08 08:41 | 26.78587 | 42.88414 | 40011 ft | 452 kts | 289° |
| 2026-05-08 08:42 | 26.81835 | 42.82389 | 40014 ft | 452 kts | 289° |
| 2026-05-08 08:42 | 26.85080 | 42.76362 | 40014 ft | 452 kts | 289° |
| 2026-05-08 08:43 | 26.88322 | 42.70331 | 40010 ft | 452 kts | 289° |
| 2026-05-08 08:43 | 26.91561 | 42.64299 | 40012 ft | 452 kts | 289° |
| 2026-05-08 08:44 | 26.94779 | 42.58297 | 40025 ft | 453 kts | 290° |
| 2026-05-08 08:44 | 26.97898 | 42.52475 | 40033 ft | 453 kts | 290° |
| 2026-05-08 08:45 | 27.01138 | 42.46414 | 40034 ft | 453 kts | 290° |
| 2026-05-08 08:45 | 27.04376 | 42.40352 | 40069 ft | 453 kts | 290° |
| 2026-05-08 08:46 | 27.07598 | 42.34311 | 40032 ft | 454 kts | 290° |
| 2026-05-08 08:46 | 27.10839 | 42.28225 | 40032 ft | 454 kts | 290° |
| 2026-05-08 08:47 | 27.14076 | 42.22135 | 40033 ft | 454 kts | 290° |
| 2026-05-08 08:47 | 27.17311 | 42.16040 | 40039 ft | 454 kts | 290° |
| 2026-05-08 08:48 | 27.20523 | 42.09984 | 40040 ft | 455 kts | 290° |
| 2026-05-08 08:48 | 27.23756 | 42.03876 | 40042 ft | 455 kts | 290° |
| 2026-05-08 08:49 | 27.26989 | 41.97761 | 40075 ft | 456 kts | 291° |
| 2026-05-08 08:49 | 27.30227 | 41.91630 | 40053 ft | 456 kts | 291° |
| 2026-05-08 08:50 | 27.33442 | 41.85532 | 40057 ft | 456 kts | 291° |
| 2026-05-08 08:50 | 27.36677 | 41.79386 | 40060 ft | 457 kts | 290° |
| 2026-05-08 08:51 | 27.39911 | 41.73236 | 40054 ft | 456 kts | 291° |
| 2026-05-08 08:51 | 27.43425 | 41.67237 | 40108 ft | 472 kts | 304° |
| 2026-05-08 08:52 | 27.45792 | 41.64669 | 40089 ft | 483 kts | 309° |
| 2026-05-08 08:52 | 27.48365 | 41.62215 | 40086 ft | 486 kts | 310° |
| 2026-05-08 08:52 | 27.53355 | 41.57135 | 40075 ft | 480 kts | 306° |
| 2026-05-08 08:53 | 27.58250 | 41.51989 | 40079 ft | 483 kts | 309° |
| 2026-05-08 08:53 | 27.62390 | 41.47775 | 40075 ft | 482 kts | 308° |
| 2026-05-08 08:54 | 27.68093 | 41.41803 | 40070 ft | 482 kts | 308° |
| 2026-05-08 08:54 | 27.73045 | 41.36689 | 40062 ft | 484 kts | 307° |
| 2026-05-08 08:55 | 27.77989 | 41.31531 | 40056 ft | 484 kts | 308° |
| 2026-05-08 08:55 | 27.82946 | 41.26379 | 40073 ft | 485 kts | 308° |
| 2026-05-08 08:56 | 27.87864 | 41.21245 | 40075 ft | 484 kts | 308° |
| 2026-05-08 08:56 | 27.92817 | 41.16078 | 40079 ft | 485 kts | 308° |
| 2026-05-08 08:57 | 27.97770 | 41.10901 | 40075 ft | 484 kts | 308° |
| 2026-05-08 08:57 | 28.01880 | 41.06601 | 40075 ft | 484 kts | 308° |
| 2026-05-08 08:58 | 28.07626 | 41.00580 | 40099 ft | 485 kts | 309° |
| 2026-05-08 08:58 | 28.12567 | 40.95398 | 40085 ft | 484 kts | 309° |
| 2026-05-08 08:59 | 28.17500 | 40.90212 | 40101 ft | 484 kts | 310° |
| 2026-05-08 08:59 | 28.21586 | 40.85919 | 40093 ft | 480 kts | 309° |
| 2026-05-08 09:00 | 28.27270 | 40.79928 | 40086 ft | 480 kts | 309° |
| 2026-05-08 09:00 | 28.32158 | 40.74776 | 40083 ft | 480 kts | 309° |
| 2026-05-08 09:01 | 28.37040 | 40.69619 | 40090 ft | 480 kts | 309° |
| 2026-05-08 09:01 | 28.41101 | 40.65326 | 40093 ft | 480 kts | 309° |
| 2026-05-08 09:02 | 28.46771 | 40.59323 | 40094 ft | 479 kts | 309° |
| 2026-05-08 09:02 | 28.51641 | 40.54160 | 40092 ft | 479 kts | 309° |
| 2026-05-08 09:03 | 28.55685 | 40.49867 | 40098 ft | 479 kts | 309° |
| 2026-05-08 09:03 | 28.61334 | 40.43864 | 40097 ft | 476 kts | 310° |
| 2026-05-08 09:04 | 28.66157 | 40.38728 | 40096 ft | 474 kts | 310° |
| 2026-05-08 09:04 | 28.70974 | 40.33594 | 40097 ft | 474 kts | 310° |
| 2026-05-08 09:05 | 28.74976 | 40.29324 | 40098 ft | 474 kts | 310° |
| 2026-05-08 09:05 | 28.79787 | 40.24182 | 40130 ft | 474 kts | 310° |
| 2026-05-08 09:06 | 28.85352 | 40.18230 | 40110 ft | 471 kts | 310° |
| 2026-05-08 09:06 | 28.89324 | 40.13972 | 40106 ft | 471 kts | 310° |
| 2026-05-08 09:07 | 28.94104 | 40.08846 | 40115 ft | 472 kts | 310° |
| 2026-05-08 09:07 | 28.98880 | 40.03715 | 40115 ft | 472 kts | 310° |
| 2026-05-08 09:08 | 29.04431 | 39.97745 | 40112 ft | 471 kts | 311° |
| 2026-05-08 09:08 | 29.08430 | 39.93437 | 40119 ft | 471 kts | 311° |
| 2026-05-08 09:09 | 29.10649 | 39.90784 | 40142 ft | 464 kts | 300° |
| 2026-05-08 09:09 | 29.12340 | 39.87692 | 40143 ft | 455 kts | 288° |
| 2026-05-08 09:09 | 29.13375 | 39.84318 | 40146 ft | 446 kts | 276° |
| 2026-05-08 09:09 | 29.13717 | 39.80830 | 40149 ft | 439 kts | 264° |
| 2026-05-08 09:10 | 29.12712 | 39.73981 | 40126 ft | 436 kts | 254° |
| 2026-05-08 09:10 | 29.11363 | 39.67207 | 40128 ft | 438 kts | 258° |
| 2026-05-08 09:11 | 29.10854 | 39.60302 | 40120 ft | 442 kts | 269° |
| 2026-05-08 09:11 | 29.11171 | 39.53254 | 40122 ft | 445 kts | 268° |
| 2026-05-08 09:12 | 29.11083 | 39.46202 | 40111 ft | 443 kts | 266° |
| 2026-05-08 09:12 | 29.11128 | 39.39138 | 40109 ft | 444 kts | 268° |
| 2026-05-08 09:13 | 29.11123 | 39.32063 | 40092 ft | 446 kts | 267° |
| 2026-05-08 09:13 | 29.11124 | 39.25031 | 40093 ft | 445 kts | 268° |
| 2026-05-08 09:14 | 29.11125 | 39.17950 | 40094 ft | 445 kts | 268° |
| 2026-05-08 09:14 | 29.11114 | 39.10870 | 40096 ft | 446 kts | 268° |
| 2026-05-08 09:15 | 29.11108 | 39.03772 | 40095 ft | 446 kts | 268° |
| 2026-05-08 09:15 | 29.11091 | 38.96721 | 40095 ft | 446 kts | 268° |
| 2026-05-08 09:16 | 29.11074 | 38.89623 | 40095 ft | 446 kts | 268° |
| 2026-05-08 09:16 | 29.11042 | 38.82511 | 40087 ft | 447 kts | 268° |
| 2026-05-08 09:17 | 29.11012 | 38.75389 | 40087 ft | 448 kts | 268° |
| 2026-05-08 09:17 | 29.10975 | 38.68317 | 40069 ft | 448 kts | 268° |